Decoded Metar for USRR (SURGUT in RUSSIA) (IATA:SGC) | Meteo·Mobile Aviation Weather
aviador You're here:

USRR Decoded Metar

SURGUT in RUSSIA
Report Time2018-10-17 05:00:00
UTC Time2018-10-17 05:17:17
Flight Rules ifr IFR
Wind200° at 12 kt
W.Decomp.*RWY 25: 4.9 kt HW 11 kt LCW
W.Rank200° ranks 3
Current wind is above 200° avg. (7.8)
Visibility3300 m
Phenomena:Shower Snow
Clouds:Broken 005 Hf
Scattered 007 Hf
Broken CB 015 Hf
Broken CB 017 Hf
Ceiling1,700 ft
Temp-1°C (ISA -16)
Dew Point-1°C (100% RH)
AAT-7.4°C
QNH1002 hPa
Density Alt-1,325 ft
Elevation144 ft
Report Wrong Elevation
Raw Report
USRR 170500Z 20006MPS 3300 -SHSN SCT007 BKN017CB M01/M01 Q1002
R25/590532 TEMPO 1600 SHSN BKN005 BKN015CB RMK OBST OBSC
QFE746=

Extra information for USRR:More info

Metar Taf Metar & Taf Last 4 Metars F.Rules Stats Wind Profile Meteogram Temp Stats Airport Information Weather charts Add Link Nearby VenuesMetar ALERT Operation Metar Decoded Social comments